Time;durP1;ratioP1;P1;durP2;ratioP2;P2;SDS_P1;SDS_P2;PMS_P1;PMS_P2;Temp;Humidity;BMP_temperature;BMP_pressure;BME280_temperature;BME280_humidity;BME280_pressure;Samples;Min_cycle;Max_cycle;Signal;HPM_P1;HPM_P2
2022/12/05 00:01:55;;;;;;;7.27;4.40;;;;;;;6.00;100.00;95368.88;5091948;28;20736;-56
2022/12/05 00:04:21;;;;;;;6.63;4.57;;;;;;;5.91;100.00;95361.84;5091856;28;20222;-57
2022/12/05 00:06:46;;;;;;;7.17;4.03;;;;;;;5.86;100.00;95361.28;5073773;28;20202;-56
2022/12/05 00:09:13;;;;;;;8.20;4.37;;;;;;;5.81;100.00;95361.50;5073603;28;20204;-57
2022/12/05 00:11:41;;;;;;;7.27;4.03;;;;;;;5.74;100.00;95357.69;5092269;28;20198;-55
2022/12/05 00:14:08;;;;;;;6.50;4.93;;;;;;;5.66;100.00;95359.00;5091719;28;20210;-56
2022/12/05 00:16:37;;;;;;;6.53;4.27;;;;;;;5.81;100.00;95358.16;5091901;28;20509;-55
2022/12/05 00:19:04;;;;;;;7.70;5.10;;;;;;;5.75;100.00;95358.50;5091649;28;20192;-56
2022/12/05 00:21:32;;;;;;;6.40;4.17;;;;;;;5.75;100.00;95354.28;5091684;28;20198;-56
2022/12/05 00:23:58;;;;;;;8.77;4.80;;;;;;;5.80;100.00;95362.41;5091364;28;20207;-56
2022/12/05 00:26:25;;;;;;;7.13;3.90;;;;;;;5.79;100.00;95365.84;5091492;28;20188;-53
2022/12/05 00:28:51;;;;;;;7.80;4.43;;;;;;;5.69;100.00;95363.88;5090843;28;20215;-55
2022/12/05 00:31:24;;;;;;;9.20;4.20;;;;;;;5.40;100.00;95346.97;5099101;22;20238;-56
2022/12/05 00:33:50;;;;;;;6.80;4.40;;;;;;;5.55;100.00;95367.16;5091474;28;20190;-54
2022/12/05 00:36:29;;;;;;;9.90;5.60;;;;;;;5.49;100.00;95354.06;5073144;28;20223;-53
2022/12/05 00:38:55;;;;;;;9.03;4.40;;;;;;;5.49;100.00;95361.63;5091441;28;20175;-55
2022/12/05 00:41:24;;;;;;;9.53;5.27;;;;;;;5.61;100.00;95366.00;5091299;28;20198;-56
2022/12/05 00:43:50;;;;;;;8.17;5.17;;;;;;;5.69;100.00;95384.88;5091483;28;20609;-56
2022/12/05 00:46:18;;;;;;;9.57;5.53;;;;;;;5.72;100.00;95369.56;5091406;28;20192;-54
2022/12/05 00:48:44;;;;;;;11.40;5.63;;;;;;;5.68;100.00;95368.09;5091183;28;20183;-55
2022/12/05 00:51:12;;;;;;;9.67;5.00;;;;;;;5.67;100.00;95373.25;5091631;28;20184;-54
2022/12/05 00:53:38;;;;;;;8.30;4.77;;;;;;;5.77;100.00;95380.25;5091178;28;20194;-54
2022/12/05 00:56:18;;;;;;;9.53;5.63;;;;;;;5.74;100.00;95377.03;5091308;28;20218;-54
2022/12/05 00:58:44;;;;;;;7.77;5.00;;;;;;;5.74;100.00;95372.81;5091250;28;20225;-53
2022/12/05 01:01:13;;;;;;;11.53;5.60;;;;;;;5.79;100.00;95365.84;5091216;28;20199;-54
2022/12/05 01:03:38;;;;;;;7.90;5.00;;;;;;;5.81;100.00;95365.75;5091112;28;20299;-54
2022/12/05 01:06:05;;;;;;;8.57;4.83;;;;;;;5.86;100.00;95362.09;5091185;28;20290;-56
2022/12/05 01:08:31;;;;;;;9.43;4.63;;;;;;;5.84;100.00;95361.38;5091383;28;20192;-54
2022/12/05 01:10:57;;;;;;;8.23;4.97;;;;;;;5.85;100.00;95349.56;5073058;28;20316;-55
2022/12/05 01:13:25;;;;;;;7.63;5.00;;;;;;;5.87;100.00;95356.16;5091115;28;20219;-56
2022/12/05 01:15:50;;;;;;;7.40;5.03;;;;;;;5.85;100.00;95359.66;5090935;28;20700;-54
2022/12/05 01:18:17;;;;;;;8.60;4.70;;;;;;;5.91;100.00;95360.16;5090903;28;20195;-56
2022/12/05 01:20:42;;;;;;;7.13;4.70;;;;;;;5.92;100.00;95358.41;5090957;28;20215;-56
2022/12/05 01:23:08;;;;;;;8.50;4.83;;;;;;;6.01;100.00;95365.47;5090797;28;20206;-56
2022/12/05 01:25:34;;;;;;;8.93;5.10;;;;;;;6.01;100.00;95373.06;5090763;28;20604;-56
2022/12/05 01:28:00;;;;;;;8.10;4.80;;;;;;;5.92;100.00;95355.88;5090777;28;20586;-57
2022/12/05 01:30:25;;;;;;;7.27;4.50;;;;;;;5.90;100.00;95342.53;5090881;28;20212;-55
2022/12/05 01:32:50;;;;;;;7.50;4.60;;;;;;;6.03;100.00;95348.56;5091002;28;20599;-54
2022/12/05 01:35:16;;;;;;;8.47;4.80;;;;;;;6.06;100.00;95347.56;5090848;28;20230;-54
2022/12/05 01:37:41;;;;;;;8.27;5.57;;;;;;;6.08;100.00;95356.66;5072632;28;20187;-55
2022/12/05 01:40:07;;;;;;;10.13;5.50;;;;;;;5.91;100.00;95334.91;5091374;28;20215;-56
2022/12/05 01:42:33;;;;;;;8.13;4.50;;;;;;;5.94;100.00;95329.69;5094486;28;20215;-56
2022/12/05 01:45:07;;;;;;;8.17;5.10;;;;;;;6.06;100.00;95332.44;5101718;22;20639;-55
2022/12/05 01:47:35;;;;;;;7.57;4.53;;;;;;;6.02;100.00;95338.53;5094137;28;20194;-57
2022/12/05 01:50:01;;;;;;;6.73;4.20;;;;;;;5.99;100.00;95321.84;5093925;28;20219;-56
2022/12/05 01:52:29;;;;;;;7.10;4.17;;;;;;;6.09;100.00;95332.25;5093994;28;20680;-55
2022/12/05 01:54:59;;;;;;;11.13;6.00;;;;;;;5.97;100.00;95323.66;5094260;28;20257;-55
2022/12/05 01:57:25;;;;;;;9.37;5.53;;;;;;;5.93;100.00;95322.19;5094149;28;20195;-54
2022/12/05 02:00:04;;;;;;;11.00;5.70;;;;;;;5.99;100.00;95321.84;5094303;28;20742;-53
2022/12/05 02:02:31;;;;;;;7.80;4.83;;;;;;;5.94;100.00;95322.09;5093927;28;20513;-56
2022/12/05 02:05:06;;;;;;;8.20;5.30;;;;;;;5.82;100.00;95314.38;5094031;28;20212;-55
2022/12/05 02:07:33;;;;;;;9.50;5.27;;;;;;;5.77;100.00;95312.13;5093775;28;20251;-55
2022/12/05 02:09:59;;;;;;;8.83;5.67;;;;;;;5.72;100.00;95311.56;5093722;28;20211;-55
2022/12/05 02:12:25;;;;;;;8.57;4.77;;;;;;;5.83;100.00;95323.59;5093850;28;20202;-54
2022/12/05 02:15:04;;;;;;;9.87;4.80;;;;;;;5.81;100.00;95325.38;5093605;28;20299;-55
2022/12/05 02:18:17;;;;;;;9.23;5.03;;;;;;;5.76;100.00;95314.72;5094011;28;20195;-56
2022/12/05 02:21:15;;;;;;;10.43;5.33;;;;;;;5.88;100.00;95317.41;5054181;28;20721;-53
2022/12/05 02:24:24;;;;;;;10.93;6.10;;;;;;;5.86;100.00;95315.84;5093155;28;20598;-55
2022/12/05 02:27:06;;;;;;;9.67;5.10;;;;;;;5.96;100.00;95327.06;5093263;28;20196;-55
2022/12/05 02:30:11;;;;;;;12.33;5.13;;;;;;;5.99;100.00;95333.66;5075360;28;20713;-54
2022/12/05 02:33:07;;;;;;;9.20;5.00;;;;;;;6.05;100.00;95335.84;5093448;28;20198;-54
2022/12/05 02:35:51;;;;;;;8.93;4.77;;;;;;;6.12;100.00;95332.88;5093360;28;20204;-56
2022/12/05 02:38:47;;;;;;;9.97;5.43;;;;;;;6.15;100.00;95336.94;5093513;28;20188;-55
2022/12/05 02:41:41;;;;;;;8.70;5.10;;;;;;;6.20;100.00;95340.03;5093433;28;20191;-55
2022/12/05 02:44:17;;;;;;;9.87;5.77;;;;;;;6.18;100.00;95326.69;5088342;28;20224;-55
2022/12/05 02:46:51;;;;;;;7.20;4.03;;;;;;;6.06;100.00;95324.84;5093253;28;20702;-54
2022/12/05 02:49:29;;;;;;;8.13;4.80;;;;;;;6.14;100.00;95310.09;5093456;28;20246;-57
2022/12/05 02:51:57;;;;;;;7.53;4.37;;;;;;;6.34;100.00;95327.44;5092711;28;20192;-55
2022/12/05 02:54:26;;;;;;;9.03;4.57;;;;;;;6.23;100.00;95322.19;5093016;28;20204;-54
2022/12/05 02:56:55;;;;;;;10.43;4.23;;;;;;;6.19;100.00;95313.16;5093126;28;20625;-53
2022/12/05 02:59:20;;;;;;;8.23;4.37;;;;;;;6.10;100.00;95299.34;5092915;28;20203;-53
2022/12/05 03:01:46;;;;;;;9.57;4.67;;;;;;;6.08;100.00;95303.66;5093729;28;20256;-54
2022/12/05 03:04:13;;;;;;;9.97;5.10;;;;;;;6.14;100.00;95310.09;5092611;28;20766;-55
2022/12/05 03:06:46;;;;;;;8.83;5.00;;;;;;;6.19;100.00;95313.16;5092927;28;20373;-56
2022/12/05 03:09:29;;;;;;;9.33;4.97;;;;;;;6.24;100.00;95317.03;5092850;28;20317;-56
2022/12/05 03:12:27;;;;;;;8.33;4.00;;;;;;;6.22;100.00;95308.72;5092860;28;20212;-55
2022/12/05 03:15:07;;;;;;;7.47;4.67;;;;;;;6.14;100.00;95310.88;5092897;28;20223;-53
2022/12/05 03:17:40;;;;;;;6.63;4.30;;;;;;;6.20;100.00;95320.63;5092777;28;20203;-54
2022/12/05 03:20:06;;;;;;;8.03;4.33;;;;;;;6.10;100.00;95306.91;5092589;28;20596;-56
2022/12/05 03:22:40;;;;;;;7.50;4.23;;;;;;;6.31;100.00;95318.31;5092489;28;20191;-55
2022/12/05 03:25:07;;;;;;;8.10;4.47;;;;;;;6.23;100.00;95322.19;5092616;28;20701;-54
2022/12/05 03:27:39;;;;;;;8.23;4.57;;;;;;;6.33;100.00;95326.63;5092400;28;20210;-54
2022/12/05 03:30:09;;;;;;;10.07;4.97;;;;;;;6.31;100.00;95323.38;5092765;28;20261;-56
2022/12/05 03:32:44;;;;;;;9.00;4.53;;;;;;;6.27;100.00;95321.09;5092970;28;20222;-54
2022/12/05 03:35:15;;;;;;;8.87;5.27;;;;;;;6.43;100.00;95337.81;5092408;28;20242;-56
2022/12/05 03:37:40;;;;;;;8.43;4.80;;;;;;;6.45;100.00;95340.25;5092469;28;20184;-55
2022/12/05 03:40:16;;;;;;;11.00;5.63;;;;;;;6.41;100.00;95339.63;5092569;28;20212;-56
2022/12/05 03:42:53;;;;;;;7.70;4.87;;;;;;;6.30;100.00;95321.72;5092156;28;20278;-56
2022/12/05 03:45:27;;;;;;;13.30;5.90;;;;;;;6.30;100.00;95321.72;5097616;22;20682;-53
2022/12/05 03:48:14;;;;;;;7.93;4.83;;;;;;;6.23;100.00;95315.41;5072111;28;20203;-53
2022/12/05 03:50:44;;;;;;;10.80;4.73;;;;;;;6.41;100.00;95342.13;5072089;28;20208;-53
2022/12/05 03:53:16;;;;;;;9.37;4.90;;;;;;;6.44;100.00;95339.44;5072059;28;20195;-54
2022/12/05 03:55:45;;;;;;;9.17;4.83;;;;;;;6.46;100.00;95351.97;5072084;28;20219;-55
2022/12/05 03:58:20;;;;;;;10.67;5.33;;;;;;;6.21;100.00;95321.44;5071932;28;20207;-54
2022/12/05 04:00:49;;;;;;;11.30;6.30;;;;;;;6.26;100.00;95327.84;5072191;28;20279;-56
2022/12/05 04:03:43;;;;;;;8.63;4.97;;;;;;;6.19;100.00;95324.06;5071504;28;20211;-56
2022/12/05 04:06:18;;;;;;;9.90;5.03;;;;;;;6.09;100.00;95312.88;5072070;28;20234;-56
2022/12/05 04:08:51;;;;;;;8.43;4.83;;;;;;;6.14;100.00;95317.66;5071859;28;20234;-54
2022/12/05 04:11:21;;;;;;;10.10;5.13;;;;;;;6.23;100.00;95325.53;5072244;28;20200;-56
2022/12/05 04:14:07;;;;;;;8.77;5.60;;;;;;;6.37;100.00;95333.13;5071726;28;20278;-54
2022/12/05 04:17:03;;;;;;;10.10;5.37;;;;;;;6.47;100.00;95344.31;5072108;28;20192;-55
2022/12/05 04:22:21;;;;;;;10.67;5.63;;;;;;;6.32;100.00;95317.41;5071469;28;20230;-55
2022/12/05 04:27:48;;;;;;;9.60;5.10;;;;;;;6.36;100.00;95310.50;5071781;28;20186;-54
2022/12/05 04:30:22;;;;;;;9.57;5.60;;;;;;;6.44;100.00;95318.44;5071501;28;20215;-55
2022/12/05 04:32:59;;;;;;;10.70;5.63;;;;;;;6.33;100.00;95316.53;5071329;28;20173;-54
2022/12/05 04:35:48;;;;;;;12.07;6.00;;;;;;;6.22;100.00;95297.84;5071306;28;20203;-54
2022/12/05 04:38:22;;;;;;;12.70;6.00;;;;;;;6.16;100.00;95303.25;5024087;28;20192;-56
2022/12/05 04:40:58;;;;;;;11.97;6.20;;;;;;;6.10;100.00;95299.34;5071569;28;20223;-54
2022/12/05 04:43:27;;;;;;;11.30;5.97;;;;;;;6.06;100.00;95292.84;5071266;28;20207;-54
2022/12/05 04:45:56;;;;;;;11.00;5.80;;;;;;;6.15;100.00;95299.09;5071396;28;20223;-56
2022/12/05 04:48:24;;;;;;;10.30;6.33;;;;;;;6.16;100.00;95313.34;5071053;28;20191;-54
2022/12/05 04:50:52;;;;;;;14.80;6.13;;;;;;;6.12;100.00;95302.59;5071391;28;20606;-54
2022/12/05 04:53:19;;;;;;;12.23;6.50;;;;;;;6.22;100.00;95315.53;5071087;28;20215;-56
2022/12/05 04:55:48;;;;;;;9.23;5.47;;;;;;;6.27;100.00;95318.56;5071155;28;20291;-54
2022/12/05 04:58:25;;;;;;;11.17;5.73;;;;;;;6.17;100.00;95317.47;5071012;28;20266;-54
2022/12/05 05:01:13;;;;;;;11.87;6.37;;;;;;;6.30;100.00;95320.94;5071125;28;20301;-54
2022/12/05 05:03:47;;;;;;;11.23;6.07;;;;;;;6.21;100.00;95317.22;5071039;28;20692;-57
2022/12/05 05:06:13;;;;;;;10.80;5.60;;;;;;;6.28;100.00;95322.75;5071579;28;20188;-55
2022/12/05 05:08:49;;;;;;;6.97;4.77;;;;;;;6.24;100.00;95329.66;5070820;28;20192;-57
2022/12/05 05:11:21;;;;;;;13.17;5.53;;;;;;;6.42;100.00;95325.28;5070953;28;20191;-55
2022/12/05 05:13:47;;;;;;;13.20;6.10;;;;;;;6.45;100.00;95330.97;5070780;28;20188;-55
2022/12/05 05:16:18;;;;;;;11.80;5.47;;;;;;;6.47;100.00;95356.13;5070651;28;20196;-56
2022/12/05 05:18:48;;;;;;;9.47;5.57;;;;;;;6.43;100.00;95355.50;5070811;28;20185;-57
2022/12/05 05:21:18;;;;;;;9.97;5.80;;;;;;;6.48;100.00;95353.53;5070825;28;20211;-54
2022/12/05 05:23:44;;;;;;;9.70;6.20;;;;;;;6.59;100.00;95365.50;5070472;28;20211;-56
2022/12/05 05:26:09;;;;;;;11.43;6.57;;;;;;;6.54;100.00;95368.31;5070573;28;20207;-55
2022/12/05 05:28:35;;;;;;;13.93;6.67;;;;;;;6.66;100.00;95370.16;5070577;28;20188;-55
2022/12/05 05:31:02;;;;;;;9.57;5.50;;;;;;;6.63;100.00;95375.34;5071022;28;20314;-54
2022/12/05 05:33:27;;;;;;;9.67;5.50;;;;;;;6.83;100.00;95391.88;5070795;28;20192;-54
2022/12/05 05:35:53;;;;;;;8.43;5.40;;;;;;;6.70;100.00;95379.16;5070805;28;20350;-54
2022/12/05 05:38:18;;;;;;;10.50;6.20;;;;;;;6.62;100.00;95367.88;5070599;28;20191;-55
2022/12/05 05:40:44;;;;;;;10.90;6.13;;;;;;;6.62;100.00;95367.88;5070762;28;20415;-56
2022/12/05 05:43:09;;;;;;;8.67;6.00;;;;;;;6.60;100.00;95352.81;5070347;28;20184;-55
2022/12/05 05:45:36;;;;;;;11.10;5.80;;;;;;;6.66;100.00;95364.28;5070483;28;20201;-55
2022/12/05 05:48:01;;;;;;;8.83;5.50;;;;;;;6.73;100.00;95375.63;5070517;28;20568;-56
2022/12/05 05:50:27;;;;;;;9.70;6.03;;;;;;;6.72;100.00;95376.56;5070292;28;20284;-57
2022/12/05 05:52:53;;;;;;;9.63;5.73;;;;;;;6.65;100.00;95373.56;5070258;28;20697;-54
2022/12/05 05:55:19;;;;;;;9.00;5.90;;;;;;;6.62;100.00;95371.22;5070237;28;20620;-56
2022/12/05 05:57:44;;;;;;;11.87;6.13;;;;;;;6.59;100.00;95373.09;5070121;28;20177;-57
2022/12/05 06:00:10;;;;;;;10.03;6.40;;;;;;;6.64;100.00;95366.91;5070346;28;20212;-57
2022/12/05 06:02:36;;;;;;;10.60;6.20;;;;;;;6.60;100.00;95369.69;5070215;28;20212;-55
2022/12/05 06:05:01;;;;;;;10.57;6.10;;;;;;;6.49;100.00;95360.19;5069805;28;20220;-57
2022/12/05 06:07:28;;;;;;;11.87;6.23;;;;;;;6.40;100.00;95355.66;5068797;28;20187;-56
2022/12/05 06:09:53;;;;;;;13.53;7.63;;;;;;;6.48;100.00;95366.16;5070010;28;20200;-55
2022/12/05 06:12:18;;;;;;;11.73;6.57;;;;;;;6.70;100.00;95380.88;5070108;28;20187;-55
2022/12/05 06:14:47;;;;;;;12.70;6.00;;;;;;;7.22;100.00;95369.31;5068594;28;20622;-55
2022/12/05 06:17:13;;;;;;;9.83;5.40;;;;;;;6.97;100.00;95398.69;5070060;28;20246;-56
2022/12/05 06:19:38;;;;;;;9.07;5.30;;;;;;;7.01;100.00;95415.28;5069976;28;20200;-56
2022/12/05 06:22:04;;;;;;;9.50;5.33;;;;;;;6.89;100.00;95405.91;5068494;28;20629;-55
2022/12/05 06:24:29;;;;;;;12.10;5.67;;;;;;;6.89;100.00;95406.69;5069743;28;20217;-54
2022/12/05 06:26:55;;;;;;;12.40;5.53;;;;;;;6.83;100.00;95388.56;5070256;28;20185;-55
2022/12/05 06:29:20;;;;;;;12.07;5.40;;;;;;;6.90;100.00;95385.56;5073299;28;20686;-55
2022/12/05 06:31:46;;;;;;;11.43;6.83;;;;;;;6.92;100.00;95390.53;5073681;28;20235;-54
2022/12/05 06:34:11;;;;;;;9.33;5.13;;;;;;;6.78;100.00;95388.81;5073067;28;20211;-57
2022/12/05 06:36:37;;;;;;;8.77;5.10;;;;;;;6.78;100.00;95382.06;5073429;28;20311;-55
2022/12/05 06:39:03;;;;;;;9.10;4.87;;;;;;;6.87;100.00;95413.53;5072985;28;20271;-57
2022/12/05 06:41:29;;;;;;;8.23;4.40;;;;;;;6.65;100.00;95403.06;5071860;28;20618;-57
2022/12/05 06:43:56;;;;;;;7.47;4.47;;;;;;;6.66;100.00;95384.47;5072919;28;20298;-55
2022/12/05 06:46:24;;;;;;;8.03;4.73;;;;;;;6.72;100.00;95384.13;5073017;28;20203;-55
2022/12/05 06:48:52;;;;;;;8.87;5.13;;;;;;;6.72;100.00;95379.06;5071582;28;20202;-57
2022/12/05 06:51:18;;;;;;;8.70;4.80;;;;;;;6.61;100.00;95371.28;5098613;22;20223;-56
2022/12/05 06:53:44;;;;;;;10.23;4.60;;;;;;;6.61;100.00;95384.75;5092913;28;20219;-56
2022/12/05 06:56:13;;;;;;;11.77;5.10;;;;;;;6.75;100.00;95389.00;5074860;28;20779;-55
2022/12/05 06:58:39;;;;;;;14.53;5.30;;;;;;;6.61;100.00;95377.16;5092920;28;20190;-56
2022/12/05 07:01:55;;;;;;;14.17;5.97;;;;;;;6.61;100.00;95369.59;5093319;28;20286;-56
2022/12/05 07:03:56;;;;;;;12.00;5.60;;;;;;;6.55;100.00;95377.50;5082066;28;20541;-57
2022/12/05 07:06:22;;;;;;;10.03;5.63;;;;;;;6.56;100.00;95368.22;5093024;28;20233;-58
2022/12/05 07:08:47;;;;;;;13.00;6.23;;;;;;;6.60;100.00;95370.50;5092882;28;20215;-55
2022/12/05 07:11:12;;;;;;;11.57;5.80;;;;;;;6.65;100.00;95383.66;5093096;28;20295;-53
2022/12/05 07:13:38;;;;;;;10.80;5.90;;;;;;;6.59;100.00;95368.03;5092943;28;20567;-54
2022/12/05 07:16:05;;;;;;;12.80;5.73;;;;;;;6.55;100.00;95367.41;5092807;28;20308;-56
2022/12/05 07:18:32;;;;;;;11.73;5.90;;;;;;;6.57;100.00;95375.72;5092737;28;20195;-57
2022/12/05 07:20:59;;;;;;;10.17;5.40;;;;;;;6.46;100.00;95373.00;5074704;28;20211;-56
2022/12/05 07:23:25;;;;;;;12.13;6.13;;;;;;;6.51;100.00;95373.53;5092904;28;20215;-56
2022/12/05 07:25:51;;;;;;;9.13;6.37;;;;;;;6.61;100.00;95387.25;5093133;28;20208;-56
2022/12/05 07:28:16;;;;;;;9.77;5.93;;;;;;;6.59;100.00;95366.34;5092615;28;20564;-55
2022/12/05 07:30:42;;;;;;;13.00;6.60;;;;;;;6.75;100.00;95387.28;5092825;28;20255;-56
2022/12/05 07:33:08;;;;;;;15.60;6.27;;;;;;;6.81;100.00;95395.41;5092589;28;20266;-56
2022/12/05 07:35:33;;;;;;;9.70;6.10;;;;;;;6.81;100.00;95413.09;5092630;28;20208;-56
2022/12/05 07:37:58;;;;;;;10.37;6.97;;;;;;;6.79;100.00;95400.53;5092256;28;20551;-57
2022/12/05 07:40:24;;;;;;;10.00;5.20;;;;;;;7.08;100.00;95422.41;5092259;28;20602;-56
2022/12/05 07:42:52;;;;;;;9.27;4.90;;;;;;;7.10;100.00;95404.63;5074238;28;20230;-57
2022/12/05 07:45:19;;;;;;;5.97;3.93;;;;;;;6.91;100.00;95425.09;5092163;28;20302;-57
2022/12/05 07:47:44;;;;;;;8.10;4.53;;;;;;;6.90;100.00;95420.16;5074212;28;20177;-58
2022/12/05 07:50:10;;;;;;;13.70;7.40;;;;;;;6.99;100.00;95401.94;5074333;28;20226;-56
2022/12/05 07:52:35;;;;;;;7.80;4.20;;;;;;;7.14;100.00;95436.41;5092181;28;20662;-57
2022/12/05 07:55:01;;;;;;;12.83;5.00;;;;;;;7.07;100.00;95430.88;5092424;28;20230;-56
2022/12/05 07:57:29;;;;;;;6.60;4.23;;;;;;;7.04;100.00;95420.97;5092508;28;20287;-57
2022/12/05 07:59:54;;;;;;;11.27;4.50;;;;;;;7.04;100.00;95425.19;5092389;28;20211;-55
2022/12/05 08:02:20;;;;;;;6.10;4.33;;;;;;;7.08;100.00;95427.47;5092304;28;20183;-56
2022/12/05 08:04:45;;;;;;;8.23;5.03;;;;;;;7.01;100.00;95420.34;5091738;28;20220;-57
2022/12/05 08:07:11;;;;;;;8.97;5.00;;;;;;;6.96;100.00;95412.19;5092078;28;20192;-57
2022/12/05 08:09:36;;;;;;;8.23;4.50;;;;;;;6.93;100.00;95407.34;5092091;28;20215;-57
2022/12/05 08:12:02;;;;;;;8.50;5.13;;;;;;;7.05;100.00;95421.78;5073906;28;20279;-57
2022/12/05 08:14:28;;;;;;;6.37;4.43;;;;;;;7.10;100.00;95425.66;5092011;28;20341;-55
2022/12/05 08:16:53;;;;;;;8.63;4.53;;;;;;;7.14;100.00;95442.28;5091808;28;20186;-54
2022/12/05 08:19:18;;;;;;;13.13;5.70;;;;;;;7.15;100.00;95422.88;5091922;28;20223;-56
2022/12/05 08:21:44;;;;;;;6.13;3.67;;;;;;;7.40;100.00;95458.44;5091743;28;20587;-56
2022/12/05 08:24:10;;;;;;;6.47;3.70;;;;;;;7.19;100.00;95455.44;5091623;28;20227;-56
2022/12/05 08:26:36;;;;;;;4.53;3.77;;;;;;;7.29;100.00;95445.63;5091701;28;20210;-59
2022/12/05 08:29:06;;;;;;;5.80;3.47;;;;;;;7.30;100.00;95447.22;5091810;28;20192;-58
2022/12/05 08:31:34;;;;;;;7.87;3.77;;;;;;;7.35;100.00;95470.56;5091735;28;20263;-57
2022/12/05 08:34:00;;;;;;;4.87;4.03;;;;;;;7.47;100.00;95470.63;5091529;28;20195;-56
2022/12/05 08:36:28;;;;;;;4.97;3.40;;;;;;;7.43;100.00;95493.69;5091517;28;20188;-54
2022/12/05 08:39:02;;;;;;;7.70;3.47;;;;;;;7.42;100.00;95484.44;5091430;28;20188;-56
2022/12/05 08:41:28;;;;;;;4.37;3.50;;;;;;;7.34;100.00;95456.25;5092015;28;20191;-55
2022/12/05 08:44:07;;;;;;;3.23;2.90;;;;;;;7.41;100.00;95455.00;5091339;28;20254;-56
2022/12/05 08:46:35;;;;;;;3.67;2.70;;;;;;;7.49;100.00;95465.50;5091359;28;20662;-56
2022/12/05 08:49:02;;;;;;;4.43;3.30;;;;;;;7.59;100.00;95469.09;5091604;28;20188;-57
2022/12/05 08:51:30;;;;;;;5.67;3.13;;;;;;;7.69;100.00;95470.16;5090737;28;20203;-56
2022/12/05 08:53:55;;;;;;;6.53;4.80;;;;;;;7.80;100.00;95469.53;5091462;28;20184;-57
2022/12/05 08:56:21;;;;;;;9.80;5.80;;;;;;;7.66;100.00;95445.03;5091374;28;20237;-54
2022/12/05 08:58:47;;;;;;;11.27;5.33;;;;;;;7.69;100.00;95439.81;5091228;28;20261;-57
2022/12/05 09:01:16;;;;;;;5.17;3.90;;;;;;;7.72;100.00;95467.44;5091359;28;20192;-55
2022/12/05 09:03:42;;;;;;;6.40;3.93;;;;;;;7.72;100.00;95457.31;5091090;28;20582;-56
2022/12/05 09:06:11;;;;;;;6.00;3.87;;;;;;;7.74;100.00;95467.38;5073080;28;20214;-55
2022/12/05 09:08:37;;;;;;;7.73;5.10;;;;;;;7.62;100.00;95436.81;5091086;28;20188;-55
2022/12/05 09:11:05;;;;;;;7.47;5.13;;;;;;;7.79;100.00;95451.00;5073172;28;20701;-55
2022/12/05 09:13:31;;;;;;;6.83;4.40;;;;;;;7.69;100.00;95462.56;5072914;28;20191;-56
2022/12/05 09:15:56;;;;;;;7.53;4.43;;;;;;;7.70;100.00;95460.84;5091484;28;20642;-56
2022/12/05 09:18:21;;;;;;;8.50;5.10;;;;;;;7.63;100.00;95440.97;5090885;28;20222;-54
2022/12/05 09:20:47;;;;;;;6.23;4.30;;;;;;;7.74;100.00;95458.03;5091278;28;20212;-55
2022/12/05 09:23:12;;;;;;;6.50;4.20;;;;;;;7.76;100.00;95442.78;5090851;28;20666;-55
2022/12/05 09:25:37;;;;;;;7.63;4.33;;;;;;;7.92;100.00;95461.19;5091016;28;20211;-56
2022/12/05 09:28:03;;;;;;;7.30;4.70;;;;;;;7.94;100.00;95447.50;5091171;28;20190;-57
2022/12/05 09:30:28;;;;;;;7.43;4.70;;;;;;;7.89;100.00;95439.41;5072674;28;20208;-57
2022/12/05 09:32:54;;;;;;;9.67;4.20;;;;;;;7.92;100.00;95439.19;5090917;28;20184;-55
2022/12/05 09:35:19;;;;;;;12.17;5.47;;;;;;;7.87;100.00;95443.75;5090964;28;20582;-57
2022/12/05 09:37:45;;;;;;;4.43;3.10;;;;;;;7.97;100.00;95461.69;5090830;28;20644;-56
2022/12/05 09:40:16;;;;;;;7.47;3.80;;;;;;;8.01;100.00;95471.53;5072565;28;20216;-56
2022/12/05 09:42:58;;;;;;;6.17;3.83;;;;;;;7.88;100.00;95468.13;5091016;28;20211;-55
2022/12/05 09:45:36;;;;;;;7.87;3.57;;;;;;;7.83;100.00;95461.72;5090924;28;20662;-57
2022/12/05 09:48:13;;;;;;;7.50;3.73;;;;;;;7.80;100.00;95447.53;5090672;28;20187;-57
2022/12/05 09:50:53;;;;;;;4.13;3.73;;;;;;;7.82;100.00;95439.88;5090478;28;20226;-57
2022/12/05 09:53:21;;;;;;;8.90;3.70;;;;;;;7.89;100.00;95441.94;5072420;28;20190;-57
2022/12/05 09:55:59;;;;;;;5.50;3.30;;;;;;;7.89;100.00;95443.63;5090493;28;20235;-56
2022/12/05 09:58:39;;;;;;;3.83;3.20;;;;;;;7.65;100.00;95429.03;5090586;28;20212;-57
2022/12/05 10:01:19;;;;;;;3.53;2.73;;;;;;;7.76;100.00;95441.03;5090794;28;20258;-56
2022/12/05 10:03:59;;;;;;;4.40;2.90;;;;;;;7.96;100.00;95471.00;5093356;28;20235;-56
2022/12/05 10:06:33;;;;;;;8.07;3.57;;;;;;;7.98;100.00;95448.94;5093999;28;20188;-57
2022/12/05 10:09:08;;;;;;;4.43;3.27;;;;;;;8.37;100.00;95468.47;5075653;28;20187;-56
2022/12/05 10:12:00;;;;;;;8.50;3.17;;;;;;;8.41;100.00;95477.50;5094206;28;20184;-57
2022/12/05 10:15:05;;;;;;;6.00;3.83;;;;;;;8.13;100.00;95437.06;5062691;22;20228;-56
2022/12/05 10:17:35;;;;;;;8.90;3.73;;;;;;;8.13;100.00;95450.53;5093707;28;20183;-56
2022/12/05 10:20:15;;;;;;;7.20;3.37;;;;;;;7.92;100.00;95421.47;5094058;28;20273;-58
2022/12/05 10:22:50;;;;;;;7.30;3.53;;;;;;;8.06;100.00;95434.09;5093844;28;20654;-56
2022/12/05 10:25:20;;;;;;;8.30;4.13;;;;;;;8.05;100.00;95422.34;5093857;28;20226;-56
2022/12/05 10:28:01;;;;;;;4.87;3.40;;;;;;;7.97;100.00;95419.47;5093449;28;20253;-55
2022/12/05 10:30:31;;;;;;;7.90;4.20;;;;;;;8.01;100.00;95394.78;5093728;28;20215;-55
2022/12/05 10:33:01;;;;;;;7.13;4.50;;;;;;;8.00;100.00;95413.41;5093518;28;20187;-54
2022/12/05 10:35:32;;;;;;;10.27;5.37;;;;;;;8.19;100.00;95418.94;5093485;28;20662;-54
2022/12/05 10:38:02;;;;;;;7.90;4.73;;;;;;;8.32;100.00;95424.91;5093550;28;20192;-54
2022/12/05 10:40:43;;;;;;;8.17;5.40;;;;;;;9.24;100.00;95335.88;5075035;28;20307;-56
2022/12/05 10:43:21;;;;;;;8.00;5.30;;;;;;;8.97;100.00;95428.22;5093483;28;20213;-54
2022/12/05 10:45:47;;;;;;;9.47;6.47;;;;;;;8.84;100.00;95427.41;5075114;28;20223;-55
2022/12/05 10:48:16;;;;;;;7.37;4.57;;;;;;;8.66;100.00;95393.13;5093243;28;20180;-54
2022/12/05 10:50:45;;;;;;;8.33;4.90;;;;;;;8.61;100.00;95395.94;5093229;28;20208;-54
2022/12/05 10:53:15;;;;;;;10.37;4.93;;;;;;;8.60;100.00;95375.78;5074817;28;20604;-56
2022/12/05 10:55:45;;;;;;;9.10;5.23;;;;;;;8.52;100.00;95381.34;5092985;28;20277;-56
2022/12/05 10:58:12;;;;;;;7.07;4.23;;;;;;;8.47;100.00;95378.28;5093181;28;20273;-54
2022/12/05 11:00:45;;;;;;;7.63;4.57;;;;;;;8.39;100.00;95373.72;5092935;28;20220;-57
2022/12/05 11:03:30;;;;;;;10.40;4.57;;;;;;;8.31;100.00;95375.94;5093358;28;20313;-56
2022/12/05 11:06:13;;;;;;;6.53;4.37;;;;;;;8.35;100.00;95368.97;5093323;28;20754;-56
2022/12/05 11:08:38;;;;;;;10.63;5.30;;;;;;;8.20;100.00;95353.00;5077130;28;20259;-56
2022/12/05 11:11:18;;;;;;;7.70;4.60;;;;;;;8.16;100.00;95351.56;5093362;28;20577;-56
2022/12/05 11:14:01;;;;;;;10.97;6.47;;;;;;;8.14;100.00;95367.78;5092482;28;20180;-57
2022/12/05 11:16:37;;;;;;;8.77;5.40;;;;;;;8.09;100.00;95355.41;5093006;28;20275;-57
2022/12/05 11:19:21;;;;;;;9.33;5.77;;;;;;;8.12;100.00;95340.00;5093018;28;20254;-55
2022/12/05 11:21:47;;;;;;;11.57;6.20;;;;;;;8.01;100.00;95331.47;5093444;28;20716;-57
2022/12/05 11:24:30;;;;;;;8.80;5.97;;;;;;;8.01;100.00;95323.88;5092863;28;20275;-54
2022/12/05 11:26:57;;;;;;;10.70;5.03;;;;;;;7.90;100.00;95304.31;5092761;28;20192;-55
2022/12/05 11:29:35;;;;;;;8.00;5.23;;;;;;;8.03;100.00;95311.94;5093473;28;20223;-57
2022/12/05 11:32:04;;;;;;;9.50;5.13;;;;;;;7.99;100.00;95303.75;5092708;28;20207;-56
2022/12/05 11:34:49;;;;;;;7.13;4.80;;;;;;;7.95;100.00;95311.63;5092753;28;20204;-56
2022/12/05 11:37:23;;;;;;;10.60;4.73;;;;;;;8.07;100.00;95320.97;5092600;28;20192;-55
2022/12/05 11:39:49;;;;;;;8.20;5.07;;;;;;;8.03;100.00;95317.81;5092727;28;20661;-54
2022/12/05 11:42:52;;;;;;;7.57;4.60;;;;;;;8.03;100.00;95302.63;5092399;28;20245;-55
2022/12/05 11:45:46;;;;;;;8.00;5.30;;;;;;;8.03;100.00;95301.81;5092291;28;20230;-55
2022/12/05 11:48:29;;;;;;;6.63;5.00;;;;;;;7.97;100.00;95289.56;5055725;28;20283;-55
2022/12/05 11:51:20;;;;;;;12.23;5.23;;;;;;;7.81;100.00;95277.06;5092465;28;20467;-56
2022/12/05 11:54:23;;;;;;;11.93;5.67;;;;;;;7.78;100.00;95262.06;5074119;28;20637;-55
2022/12/05 11:56:55;;;;;;;8.50;4.97;;;;;;;8.04;100.00;95273.06;5092352;28;20657;-54